createdAt,value
2018-06-02T00:04:47.485Z,5.00
2018-06-02T00:09:40.775Z,4.50
2018-06-02T00:14:34.076Z,5.20
2018-06-02T00:19:27.521Z,4.30
2018-06-02T00:24:20.841Z,4.97
2018-06-02T00:29:14.526Z,7.17
2018-06-02T00:34:07.818Z,5.23
2018-06-02T00:39:01.158Z,6.03
2018-06-02T00:43:54.570Z,6.60
2018-06-02T00:48:47.150Z,4.57
2018-06-02T00:53:40.471Z,4.77
2018-06-02T00:58:33.766Z,5.67
2018-06-02T01:03:27.058Z,8.30
2018-06-02T01:08:21.109Z,6.27
2018-06-02T01:13:14.401Z,8.13
2018-06-02T01:18:07.687Z,5.03
2018-06-02T01:23:01.778Z,5.67
2018-06-02T01:27:55.940Z,5.53
2018-06-02T01:32:49.327Z,5.00
2018-06-02T01:37:42.669Z,6.40
2018-06-02T01:42:35.997Z,5.73
2018-06-02T01:47:29.303Z,5.33
2018-06-02T01:52:23.371Z,4.30
2018-06-02T01:57:16.657Z,6.83
2018-06-02T02:02:09.959Z,7.10
2018-06-02T02:07:04.011Z,4.93
2018-06-02T02:11:57.304Z,5.97
2018-06-02T02:16:50.590Z,8.43
2018-06-02T02:21:43.898Z,4.93
2018-06-02T02:26:37.174Z,5.10
2018-06-02T02:31:30.545Z,6.17
2018-06-02T02:36:24.577Z,6.87
2018-06-02T02:41:17.877Z,6.07
2018-06-02T02:46:11.168Z,4.80
2018-06-02T02:51:04.543Z,4.60
2018-06-02T02:55:57.839Z,5.07
2018-06-02T03:00:52.322Z,4.90
2018-06-02T03:05:45.613Z,5.00
2018-06-02T03:10:38.912Z,5.77
2018-06-02T03:15:33.592Z,6.00
2018-06-02T03:20:26.964Z,6.17
2018-06-02T03:25:20.280Z,7.30
2018-06-02T03:30:14.338Z,6.17
2018-06-02T03:35:07.625Z,6.47
2018-06-02T03:40:00.923Z,6.70
2018-06-02T03:44:54.972Z,9.43
2018-06-02T03:49:49.043Z,6.60
2018-06-02T03:54:42.399Z,7.17
2018-06-02T03:59:35.661Z,8.77
2018-06-02T04:04:28.940Z,6.57
2018-06-02T04:09:22.997Z,4.47
2018-06-02T04:14:17.814Z,8.07
2018-06-02T04:19:11.109Z,5.40
2018-06-02T04:24:04.390Z,4.80
2018-06-02T04:28:57.701Z,4.87
2018-06-02T04:33:50.999Z,4.17
2018-06-02T04:38:45.156Z,6.23
2018-06-02T04:43:39.209Z,4.70
2018-06-02T04:48:32.509Z,3.75
2018-06-02T04:53:26.557Z,4.32
2018-06-02T04:58:19.848Z,4.50
2018-06-02T05:03:13.453Z,4.20
2018-06-02T05:08:06.755Z,4.05
2018-06-02T05:13:00.041Z,3.65
2018-06-02T05:17:54.097Z,4.05
2018-06-02T05:22:47.366Z,4.47
2018-06-02T05:27:40.709Z,5.78
2018-06-02T05:32:33.990Z,4.68
2018-06-02T05:37:27.289Z,5.12
2018-06-02T05:42:20.577Z,3.62
2018-06-02T05:47:13.881Z,4.07
2018-06-02T05:52:07.153Z,4.20
2018-06-02T05:57:00.475Z,2.65
2018-06-02T06:01:53.849Z,3.67
2018-06-02T06:06:47.186Z,4.62
2018-06-02T06:11:40.465Z,3.62
2018-06-02T06:16:34.900Z,6.53
2018-06-02T06:21:28.937Z,4.10
2018-06-02T06:26:22.236Z,4.30
2018-06-02T06:31:15.524Z,5.62
2018-06-02T06:36:08.805Z,5.93
2018-06-02T06:41:03.020Z,4.93
2018-06-02T06:45:57.081Z,4.10
2018-06-02T06:50:50.363Z,3.70
2018-06-02T06:55:43.652Z,4.28
2018-06-02T07:00:36.936Z,4.87
2018-06-02T07:05:30.222Z,4.65
2018-06-02T07:10:23.490Z,3.80
2018-06-02T07:15:17.558Z,6.30
2018-06-02T07:20:10.857Z,4.47
2018-06-02T07:25:04.152Z,4.62
2018-06-02T07:29:58.241Z,5.50
2018-06-02T07:34:51.529Z,3.83
2018-06-02T07:39:45.590Z,4.75
2018-06-02T07:44:38.889Z,3.97
2018-06-02T07:49:32.173Z,6.93
2018-06-02T07:54:26.232Z,3.72
2018-06-02T07:59:19.527Z,6.75
2018-06-02T08:04:12.814Z,4.43
2018-06-02T08:09:06.136Z,3.70
2018-06-02T08:13:59.428Z,5.05
2018-06-02T08:18:52.739Z,5.18
2018-06-02T08:23:46.057Z,5.20
2018-06-02T08:28:39.344Z,3.80
2018-06-02T08:33:33.544Z,4.53
2018-06-02T08:38:26.763Z,4.35
2018-06-02T08:43:20.077Z,5.45
2018-06-02T08:48:13.363Z,3.50
2018-06-02T08:53:06.763Z,3.62
2018-06-02T08:58:00.175Z,4.30
2018-06-02T09:02:57.000Z,3.55
2018-06-02T09:07:50.284Z,4.35
2018-06-02T09:12:43.638Z,4.55
2018-06-02T09:17:36.926Z,2.97
2018-06-02T09:22:30.280Z,4.18
2018-06-02T09:27:24.376Z,3.78
2018-06-02T09:32:17.713Z,2.50
2018-06-02T09:37:10.998Z,3.42
2018-06-02T09:42:04.285Z,4.30
2018-06-02T09:46:57.569Z,2.58
2018-06-02T09:51:50.881Z,3.10
2018-06-02T09:56:44.167Z,2.17
2018-06-02T10:08:37.095Z,2.15
2018-06-02T10:13:30.370Z,3.20
2018-06-02T10:18:23.657Z,1.95
2018-06-02T10:23:16.954Z,2.60
2018-06-02T10:28:10.266Z,2.03
2018-06-02T10:33:04.333Z,1.90
2018-06-02T10:37:57.617Z,1.73
2018-06-02T10:42:50.897Z,1.95
2018-06-02T10:47:44.192Z,1.65
2018-06-02T10:52:37.492Z,1.83
2018-06-02T10:57:30.808Z,1.55
2018-06-02T11:02:24.124Z,2.72
2018-06-02T11:07:18.186Z,1.85
2018-06-02T11:12:11.453Z,1.50
2018-06-02T11:17:04.771Z,1.50
2018-06-02T11:21:58.841Z,1.60
2018-06-02T11:26:52.378Z,2.10
2018-06-02T11:31:45.680Z,1.25
2018-06-02T11:36:38.997Z,1.23
2018-06-02T11:41:32.350Z,1.30
2018-06-02T11:46:25.641Z,1.27
2018-06-02T11:51:18.924Z,2.10
2018-06-02T11:56:12.236Z,2.50
2018-06-02T12:01:05.539Z,1.90
2018-06-02T12:05:58.815Z,1.08
2018-06-02T12:10:52.093Z,2.08
2018-06-02T12:15:45.385Z,1.40
2018-06-02T12:20:38.724Z,1.58
2018-06-02T12:25:32.005Z,1.45
2018-06-02T12:30:25.396Z,2.53
2018-06-02T12:35:18.887Z,1.77
2018-06-02T12:40:12.201Z,1.33
2018-06-02T12:45:05.474Z,1.70
2018-06-02T12:49:58.773Z,2.95
2018-06-02T12:54:52.096Z,4.10
2018-06-02T12:59:45.389Z,1.92
2018-06-02T13:04:39.843Z,1.73
2018-06-02T13:09:33.910Z,2.70
2018-06-02T13:14:27.238Z,1.90
2018-06-02T13:19:20.535Z,2.10
2018-06-02T13:24:13.853Z,2.15
2018-06-02T13:29:07.133Z,3.37
2018-06-02T13:34:00.451Z,3.58
2018-06-02T13:38:53.736Z,2.92
2018-06-02T13:43:47.026Z,2.85
2018-06-02T13:48:40.337Z,1.85
2018-06-02T13:53:33.668Z,1.92
2018-06-02T13:58:26.954Z,5.55
2018-06-02T14:03:21.085Z,2.15
2018-06-02T14:08:14.377Z,3.10
2018-06-02T14:13:07.657Z,2.97
2018-06-02T14:18:00.954Z,2.28
2018-06-02T14:22:55.110Z,2.25
2018-06-02T14:27:48.414Z,2.37
2018-06-02T14:32:41.700Z,1.95
2018-06-02T14:37:36.714Z,2.00
2018-06-02T14:42:30.027Z,1.95
2018-06-02T14:47:23.333Z,2.53
2018-06-02T14:52:16.674Z,1.83
2018-06-02T14:57:09.960Z,1.92
2018-06-02T15:02:03.247Z,1.92
2018-06-02T15:06:56.546Z,2.70
2018-06-02T15:11:49.868Z,2.95
2018-06-02T15:16:43.929Z,2.87
2018-06-02T15:21:37.260Z,2.65
2018-06-02T15:26:30.577Z,4.65
2018-06-02T15:31:23.976Z,4.30
2018-06-02T15:36:17.978Z,2.22
2018-06-02T15:41:14.435Z,2.40
2018-06-02T15:46:07.890Z,2.03
2018-06-02T15:51:01.239Z,2.08
2018-06-02T15:55:54.557Z,3.92
2018-06-02T16:00:47.899Z,1.85
2018-06-02T16:05:41.121Z,1.92
2018-06-02T16:10:34.442Z,1.70
2018-06-02T16:15:27.741Z,2.20
2018-06-02T16:20:21.032Z,1.75
2018-06-02T16:25:14.421Z,2.03
2018-06-02T16:30:07.706Z,2.50
2018-06-02T16:35:01.022Z,2.65
2018-06-02T16:39:54.321Z,3.70
2018-06-02T16:44:47.609Z,1.60
2018-06-02T16:49:40.906Z,1.52
2018-06-02T16:54:34.241Z,1.95
2018-06-02T16:59:27.580Z,3.03
2018-06-02T17:04:20.861Z,3.05
2018-06-02T17:09:14.232Z,4.22
2018-06-02T17:14:07.604Z,1.92
2018-06-02T17:19:01.702Z,3.30
2018-06-02T17:23:54.986Z,3.50
2018-06-02T17:28:48.285Z,2.75
2018-06-02T17:33:42.341Z,2.65
2018-06-02T17:38:35.658Z,2.20
2018-06-02T17:43:29.745Z,3.22
2018-06-02T17:48:23.814Z,3.53
2018-06-02T17:53:17.456Z,3.47
2018-06-02T17:58:10.742Z,2.70
2018-06-02T18:03:04.058Z,7.22
2018-06-02T18:07:57.348Z,3.85
2018-06-02T18:12:50.625Z,2.50
2018-06-02T18:17:43.910Z,2.10
2018-06-02T18:22:37.193Z,2.60
2018-06-02T18:27:30.531Z,3.95
2018-06-02T18:32:23.811Z,2.92
2018-06-02T18:37:17.112Z,4.35
2018-06-02T18:42:11.688Z,4.82
2018-06-02T18:47:04.987Z,2.50
2018-06-02T18:51:58.273Z,3.83
2018-06-02T18:56:51.551Z,5.07
2018-06-02T19:01:44.888Z,7.62
2018-06-02T19:06:38.182Z,5.70
2018-06-02T19:11:31.468Z,5.75
2018-06-02T19:16:24.777Z,3.45
2018-06-02T19:21:18.838Z,4.85
2018-06-02T19:26:12.146Z,5.12
2018-06-02T19:31:06.226Z,2.70
2018-06-02T19:35:59.760Z,3.60
2018-06-02T19:40:53.074Z,2.23
2018-06-02T19:45:46.338Z,2.40
2018-06-02T19:50:39.691Z,3.77
2018-06-02T19:55:34.001Z,2.70
2018-06-02T20:00:27.283Z,2.87
2018-06-02T20:05:20.591Z,2.33
2018-06-02T20:10:13.900Z,4.30
2018-06-02T20:15:07.956Z,1.87
2018-06-02T20:20:01.290Z,2.70
2018-06-02T20:24:54.586Z,4.03
2018-06-02T20:29:47.871Z,4.57
2018-06-02T20:34:41.363Z,4.93
2018-06-02T20:39:34.636Z,4.77
2018-06-02T20:44:27.946Z,2.73
2018-06-02T20:49:21.280Z,3.93
2018-06-02T20:54:14.575Z,5.37
2018-06-02T20:59:07.873Z,3.43
2018-06-02T21:04:01.185Z,3.30
2018-06-02T21:08:56.090Z,3.97
2018-06-02T21:13:50.151Z,5.47
2018-06-02T21:18:43.469Z,6.30
2018-06-02T21:23:37.532Z,5.43
2018-06-02T21:28:30.885Z,4.10
2018-06-02T21:33:24.170Z,4.70
2018-06-02T21:38:17.492Z,5.00
2018-06-02T21:43:11.534Z,5.97
2018-06-02T21:48:04.831Z,6.73
2018-06-02T21:52:58.110Z,7.03
2018-06-02T21:57:51.423Z,6.10
2018-06-02T22:02:45.461Z,3.90
2018-06-02T22:07:38.779Z,5.03
2018-06-02T22:12:32.065Z,4.00
2018-06-02T22:17:25.365Z,5.27
2018-06-02T22:22:19.426Z,4.27
2018-06-02T22:27:12.746Z,5.40
2018-06-02T22:32:06.017Z,6.07
2018-06-02T22:36:59.346Z,4.20
2018-06-02T22:41:52.642Z,4.33
2018-06-02T22:46:45.929Z,5.10
2018-06-02T22:51:57.641Z,4.23
2018-06-02T22:56:51.838Z,5.07
2018-06-02T23:01:45.166Z,6.00
2018-06-02T23:06:38.462Z,5.20
2018-06-02T23:11:31.764Z,5.83
2018-06-02T23:16:25.115Z,7.00
2018-06-02T23:21:18.445Z,5.30
2018-06-02T23:26:11.743Z,4.60
2018-06-02T23:31:05.037Z,6.13
2018-06-02T23:35:58.333Z,5.60
2018-06-02T23:40:51.618Z,4.47
2018-06-02T23:45:44.915Z,5.40
2018-06-02T23:50:38.198Z,5.23
2018-06-02T23:55:31.512Z,5.77
